Footville, Wisconsin
Current Conditions -  °F | °C
As of 1:15 AM on Monday 22 Dec 2014 (Local Time) from KJVL Reporting Station
Overcast Overcast  
Wind Chill: 29°   Ceiling: 2200
Heat Index: 36°   Visibility: 10mi
Dew Point: 30°   Wind: 9mph
Humidity: 81%   Direction: 150°SSE
Pressure: 29.93"   Gusts: NA
Location:  42.67°N, 89.21°W
Report Text: KJVL 220715Z AUTO 15008KT 10SM BKN022 OVC048 02/M01 A2993 RMK AO2
Loading
Personal Weather Stations






























Interactive Weather Map New forecast layout! Learn more

10-Day Weather Forecast

Advertisements
Track Severe Weather on mobile